createdAt,value
2022-12-23T00:01:25.996Z,99432.34
2022-12-23T00:03:53.148Z,99429.16
2022-12-23T00:06:20.403Z,99429.16
2022-12-23T00:08:47.264Z,99435.78
2022-12-23T00:11:18.659Z,99433.94
2022-12-23T00:14:04.394Z,99438.16
2022-12-23T00:16:31.201Z,99433.94
2022-12-23T00:18:57.709Z,99429.47
2022-12-23T00:21:24.201Z,99431.31
2022-12-23T00:23:51.834Z,99424.47
2022-12-23T00:26:22.592Z,99428.94
2022-12-23T00:28:49.229Z,99425.25
2022-12-23T00:31:20.052Z,99431.09
2022-12-23T00:33:49.130Z,99430.06
2022-12-23T00:36:24.844Z,99435.06
2022-12-23T00:39:10.270Z,99439.53
2022-12-23T00:41:55.457Z,99437.25
2022-12-23T00:44:22.041Z,99435.41
2022-12-23T00:46:48.661Z,99440.41
2022-12-23T00:49:52.853Z,99432.31
2022-12-23T00:52:19.383Z,99439.16
2022-12-23T00:54:45.890Z,99432.31
2022-12-23T00:57:12.476Z,99428.41
2022-12-23T00:59:39.006Z,99429.19
2022-12-23T01:02:24.302Z,99426.78
2022-12-23T01:05:09.603Z,99424.94
2022-12-23T01:07:36.228Z,99431.03
2022-12-23T01:10:03.004Z,99423.69
2022-12-23T01:12:29.554Z,99434.22
2022-12-23T01:14:56.087Z,99431.59
2022-12-23T01:17:22.733Z,99435.81
2022-12-23T01:19:49.399Z,99434.22
2022-12-23T01:22:15.939Z,99427.13
2022-12-23T01:24:42.462Z,99433.19
2022-12-23T01:27:08.960Z,99435.00
2022-12-23T01:29:35.534Z,99434.78
2022-12-23T01:32:02.114Z,99438.22
2022-12-23T01:34:35.998Z,99431.13
2022-12-23T01:37:03.519Z,99435.59
2022-12-23T01:39:30.134Z,99426.66
2022-12-23T01:42:15.752Z,99424.81
2022-12-23T01:44:56.461Z,99428.50
2022-12-23T01:47:41.718Z,99435.34
2022-12-23T01:50:19.920Z,99434.56
2022-12-23T01:53:09.866Z,99421.94
2022-12-23T01:55:41.488Z,99417.50
2022-12-23T01:58:13.643Z,99409.59
2022-12-23T02:01:00.689Z,99407.16
2022-12-23T02:03:43.153Z,99415.06
2022-12-23T02:06:32.483Z,99424.28
2022-12-23T02:09:17.161Z,99420.25
2022-12-23T02:11:53.577Z,99428.63
2022-12-23T02:15:17.271Z,99423.03
2022-12-23T02:18:17.664Z,99429.34
2022-12-23T02:21:01.359Z,99433.94
2022-12-23T02:24:05.003Z,99439.69
2022-12-23T02:26:52.580Z,99446.31
2022-12-23T02:29:22.022Z,99429.97
2022-12-23T02:32:10.852Z,99423.88
2022-12-23T02:34:54.467Z,99431.78
2022-12-23T02:37:36.001Z,99433.28
2022-12-23T02:40:40.817Z,99430.19
2022-12-23T02:43:18.911Z,99436.25
2022-12-23T02:46:05.561Z,99426.28
2022-12-23T02:48:39.808Z,99435.78
2022-12-23T02:51:09.504Z,99426.84
2022-12-23T02:53:40.258Z,99429.00
2022-12-23T02:56:09.752Z,99419.06
2022-12-23T02:58:59.025Z,99418.22
2022-12-23T03:01:30.549Z,99412.16
2022-12-23T03:03:59.294Z,99410.91
2022-12-23T03:06:33.337Z,99402.22
2022-12-23T03:09:00.710Z,99406.19
2022-12-23T03:11:40.390Z,99397.28
2022-12-23T03:14:23.217Z,99399.13
2022-12-23T03:17:28.450Z,99408.59
2022-12-23T03:20:09.273Z,99399.66
2022-12-23T03:22:40.755Z,99392.00
2022-12-23T03:25:24.908Z,99401.50
2022-12-23T03:28:04.280Z,99398.88
2022-12-23T03:30:34.205Z,99399.44
2022-12-23T03:33:10.431Z,99393.59
2022-12-23T03:35:45.320Z,99388.09
2022-12-23T03:38:14.898Z,99387.28
2022-12-23T03:40:44.942Z,99385.69
2022-12-23T03:43:23.080Z,99380.19
2022-12-23T03:45:56.003Z,99393.13
2022-12-23T03:48:51.710Z,99402.63
2022-12-23T03:51:25.281Z,99412.38
2022-12-23T03:54:01.652Z,99421.63
2022-12-23T03:56:53.890Z,99429.53
2022-12-23T03:59:26.940Z,99441.88
2022-12-23T04:02:08.186Z,99428.50
2022-12-23T04:05:13.325Z,99411.09
2022-12-23T04:07:47.744Z,99421.63
2022-12-23T04:10:14.887Z,99414.75
2022-12-23T04:12:41.900Z,99413.72
2022-12-23T04:15:12.770Z,99422.19
2022-12-23T04:17:39.800Z,99415.31
2022-12-23T04:20:07.360Z,99400.31
2022-12-23T04:22:33.916Z,99405.34
2022-12-23T04:25:00.437Z,99404.31
2022-12-23T04:27:26.951Z,99391.16
2022-12-23T04:29:53.400Z,99391.16
2022-12-23T04:32:19.921Z,99385.06
2022-12-23T04:34:46.412Z,99389.78
2022-12-23T04:37:12.987Z,99389.53
2022-12-23T04:39:39.554Z,99382.44
2022-12-23T04:42:06.154Z,99376.63
2022-12-23T04:44:32.745Z,99377.16
2022-12-23T04:46:59.337Z,99371.09
2022-12-23T04:49:26.020Z,99365.84
2022-12-23T04:51:52.534Z,99359.56
2022-12-23T04:54:19.049Z,99356.91
2022-12-23T04:56:45.549Z,99355.06
2022-12-23T04:59:12.127Z,99348.19
2022-12-23T05:01:38.848Z,99340.53
2022-12-23T05:04:05.465Z,99338.47
2022-12-23T05:06:32.042Z,99323.94
2022-12-23T05:08:58.584Z,99310.78
2022-12-23T05:11:25.121Z,99317.88
2022-12-23T05:13:51.679Z,99308.16
2022-12-23T05:16:18.714Z,99302.09
2022-12-23T05:18:45.271Z,99307.09
2022-12-23T05:21:11.948Z,99312.63
2022-12-23T05:23:38.719Z,99316.31
2022-12-23T05:26:06.610Z,99328.91
2022-12-23T05:28:33.404Z,99317.81
2022-12-23T05:31:08.352Z,99333.63
2022-12-23T05:33:35.570Z,99339.09
2022-12-23T05:36:02.363Z,99332.25
2022-12-23T05:38:28.923Z,99321.41
2022-12-23T05:40:55.462Z,99319.81
2022-12-23T05:43:22.151Z,99306.06
2022-12-23T05:45:49.562Z,99304.94
2022-12-23T05:48:16.588Z,99298.34
2022-12-23T05:50:43.339Z,99295.94
2022-12-23T05:53:10.130Z,99291.16
2022-12-23T05:55:36.965Z,99297.38
2022-12-23T05:58:05.969Z,99295.78
2022-12-23T06:00:32.587Z,99291.53
2022-12-23T06:02:59.255Z,99290.44
2022-12-23T06:05:25.940Z,99280.16
2022-12-23T06:07:52.586Z,99275.94
2022-12-23T06:10:19.226Z,99264.03
2022-12-23T06:12:45.713Z,99251.66
2022-12-23T06:15:12.624Z,99248.31
2022-12-23T06:17:39.123Z,99247.06
2022-12-23T06:20:06.555Z,99246.59
2022-12-23T06:22:33.303Z,99235.81
2022-12-23T06:24:59.841Z,99235.56
2022-12-23T06:27:26.562Z,99224.00
2022-12-23T06:29:53.287Z,99221.91
2022-12-23T06:32:19.943Z,99204.28
2022-12-23T06:34:46.766Z,99209.06
2022-12-23T06:37:13.354Z,99197.50
2022-12-23T06:39:39.956Z,99193.06
2022-12-23T06:42:06.499Z,99196.47
2022-12-23T06:44:33.060Z,99183.06
2022-12-23T06:46:59.637Z,99177.81
2022-12-23T06:49:26.376Z,99162.00
2022-12-23T06:51:52.951Z,99168.06
2022-12-23T06:54:19.457Z,99159.13
2022-12-23T06:56:46.053Z,99167.00
2022-12-23T06:59:12.673Z,99169.66
2022-12-23T07:01:40.703Z,99168.63
2022-12-23T07:04:08.982Z,99162.56
2022-12-23T07:06:35.580Z,99140.47
2022-12-23T07:09:02.097Z,99135.19
2022-12-23T07:11:28.837Z,99142.06
2022-12-23T07:13:55.498Z,99134.94
2022-12-23T07:16:22.071Z,99128.63
2022-12-23T07:18:48.736Z,99116.53
2022-12-23T07:21:22.901Z,99107.03
2022-12-23T07:23:56.300Z,99104.16
2022-12-23T07:26:22.987Z,99109.19
2022-12-23T07:28:49.547Z,99114.47
2022-12-23T07:31:16.827Z,99115.25
2022-12-23T07:33:43.463Z,99112.03
2022-12-23T07:36:10.313Z,99118.94
2022-12-23T07:38:36.883Z,99116.84
2022-12-23T07:41:03.484Z,99112.34
2022-12-23T07:43:30.111Z,99113.41
2022-12-23T07:46:00.472Z,99116.03
2022-12-23T07:48:27.907Z,99109.97
2022-12-23T07:51:03.323Z,99111.81
2022-12-23T07:53:30.037Z,99107.88
2022-12-23T07:55:57.073Z,99107.09
2022-12-23T07:58:24.463Z,99108.16
2022-12-23T08:00:51.070Z,99112.63
2022-12-23T08:03:17.825Z,99116.56
2022-12-23T08:05:45.174Z,99108.69
2022-12-23T08:08:12.114Z,99110.53
2022-12-23T08:10:44.360Z,99111.31
2022-12-23T08:13:14.549Z,99102.63
2022-12-23T08:15:41.061Z,99108.44
2022-12-23T08:18:07.681Z,99109.25
2022-12-23T08:20:34.238Z,99109.25
2022-12-23T08:23:00.746Z,99103.19
2022-12-23T08:25:27.247Z,99099.50
2022-12-23T08:27:53.909Z,99097.66
2022-12-23T08:30:21.178Z,99092.41
2022-12-23T08:32:47.692Z,99094.00
2022-12-23T08:35:14.351Z,99089.53
2022-12-23T08:37:40.918Z,99091.38
2022-12-23T08:40:08.092Z,99086.66
2022-12-23T08:42:34.708Z,99070.84
2022-12-23T08:45:01.216Z,99073.47
2022-12-23T08:47:27.801Z,99070.84
2022-12-23T08:49:54.607Z,99061.69
2022-12-23T08:52:21.129Z,99059.28
2022-12-23T08:54:47.706Z,99046.09
2022-12-23T08:57:14.521Z,99042.19
2022-12-23T08:59:41.017Z,99033.50
2022-12-23T09:02:11.728Z,99033.50
2022-12-23T09:04:38.460Z,99025.59
2022-12-23T09:07:05.051Z,99020.06
2022-12-23T09:09:31.602Z,99012.97
2022-12-23T09:11:58.137Z,99010.34
2022-12-23T09:14:24.698Z,99011.38
2022-12-23T09:16:52.428Z,99002.44
2022-12-23T09:19:19.056Z,99004.06
2022-12-23T09:21:45.608Z,99004.06
2022-12-23T09:24:12.344Z,99003.22
2022-12-23T09:26:38.947Z,99009.06
2022-12-23T09:29:11.819Z,98996.94
2022-12-23T09:31:38.583Z,99000.38
2022-12-23T09:34:06.070Z,98998.53
2022-12-23T09:36:32.741Z,98995.63
2022-12-23T09:38:59.579Z,98995.63
2022-12-23T09:41:48.548Z,98994.06
2022-12-23T09:44:23.978Z,98996.19
2022-12-23T09:47:05.898Z,98985.88
2022-12-23T09:49:33.766Z,98998.81
2022-12-23T09:52:05.134Z,98984.59
2022-12-23T09:54:47.543Z,98975.91
2022-12-23T09:57:39.703Z,98973.53
2022-12-23T10:00:13.328Z,98973.03
2022-12-23T10:02:45.401Z,98967.75
2022-12-23T10:05:21.096Z,98973.59
2022-12-23T10:07:50.060Z,98974.38
2022-12-23T10:10:43.931Z,98969.91
2022-12-23T10:13:26.675Z,98963.06
2022-12-23T10:15:56.235Z,98963.84
2022-12-23T10:18:38.730Z,98964.41
2022-12-23T10:21:11.681Z,98963.59
2022-12-23T10:23:42.652Z,98966.22
2022-12-23T10:26:39.985Z,98966.00
2022-12-23T10:29:19.600Z,98960.47
2022-12-23T10:32:17.237Z,98956.78
2022-12-23T10:35:05.628Z,98952.06
2022-12-23T10:37:35.193Z,98952.06
2022-12-23T10:40:35.429Z,98955.50
2022-12-23T10:43:39.191Z,98952.59
2022-12-23T10:46:27.256Z,98951.81
2022-12-23T10:49:09.030Z,98944.47
2022-12-23T10:51:43.804Z,98939.19
2022-12-23T10:54:14.856Z,98942.13
2022-12-23T10:56:41.621Z,98935.00
2022-12-23T10:59:15.303Z,98934.22
2022-12-23T11:01:47.711Z,98927.91
2022-12-23T11:04:18.322Z,98917.38
2022-12-23T11:07:10.779Z,98920.00
2022-12-23T11:09:40.914Z,98914.22
2022-12-23T11:12:10.419Z,98906.06
2022-12-23T11:14:59.397Z,98901.59
2022-12-23T11:17:28.769Z,98900.00
2022-12-23T11:20:14.157Z,98897.09
2022-12-23T11:22:51.059Z,98894.75
2022-12-23T11:25:41.655Z,98897.19
2022-12-23T11:28:11.165Z,98891.63
2022-12-23T11:30:56.274Z,98886.38
2022-12-23T11:33:29.606Z,98882.16
2022-12-23T11:36:23.903Z,98885.56
2022-12-23T11:38:53.667Z,98886.63
2022-12-23T11:41:27.922Z,98887.66
2022-12-23T11:44:20.517Z,98876.88
2022-12-23T11:46:48.017Z,98885.56
2022-12-23T11:49:14.519Z,98874.78
2022-12-23T11:51:42.019Z,98875.59
2022-12-23T11:54:16.157Z,98871.34
2022-12-23T11:56:43.170Z,98858.16
2022-12-23T11:59:29.305Z,98862.41
2022-12-23T12:02:01.428Z,98858.16
2022-12-23T12:04:31.657Z,98861.59
2022-12-23T12:06:58.587Z,98859.50
2022-12-23T12:09:25.304Z,98856.09
2022-12-23T12:11:56.649Z,98857.16
2022-12-23T12:14:32.847Z,98854.25
2022-12-23T12:17:14.241Z,98853.19
2022-12-23T12:20:01.711Z,98847.13
2022-12-23T12:22:33.620Z,98843.72
2022-12-23T12:25:09.170Z,98842.91
2022-12-23T12:27:39.547Z,98841.88
2022-12-23T12:30:12.491Z,98831.31
2022-12-23T12:32:54.435Z,98836.31
2022-12-23T12:35:56.800Z,98824.22
2022-12-23T12:38:36.536Z,98825.78
2022-12-23T12:41:25.051Z,98828.19
2022-12-23T12:44:08.148Z,98820.50
2022-12-23T12:46:47.484Z,98818.94
2022-12-23T12:49:30.661Z,98833.69
2022-12-23T12:52:16.166Z,98828.97
2022-12-23T12:54:48.760Z,98817.38
2022-12-23T12:57:18.495Z,98814.75
2022-12-23T12:59:48.380Z,98818.97
2022-12-23T13:02:48.940Z,98820.31
2022-12-23T13:05:21.518Z,98817.66
2022-12-23T13:08:03.339Z,98808.97
2022-12-23T13:11:45.195Z,98808.69
2022-12-23T13:14:59.506Z,98809.50
2022-12-23T13:17:38.448Z,98804.22
2022-12-23T13:20:32.133Z,98807.69
2022-12-23T13:23:34.408Z,98796.31
2022-12-23T13:26:22.266Z,98795.28
2022-12-23T13:29:16.064Z,98795.28
2022-12-23T13:31:55.352Z,98788.16
2022-12-23T13:34:52.381Z,98795.03
2022-12-23T13:37:31.914Z,98788.97
2022-12-23T13:40:29.403Z,98796.88
2022-12-23T13:43:03.292Z,98807.41
2022-12-23T13:45:37.031Z,98790.03
2022-12-23T13:48:21.613Z,98793.44
2022-12-23T13:51:07.727Z,98796.88
2022-12-23T13:54:04.103Z,98793.97
2022-12-23T13:56:54.331Z,98792.16
2022-12-23T13:59:20.821Z,98782.41
2022-12-23T14:01:49.111Z,98776.06
2022-12-23T14:04:34.790Z,98777.91
2022-12-23T14:07:05.631Z,98773.94
2022-12-23T14:09:36.012Z,98781.63
2022-12-23T14:12:12.964Z,98782.16
2022-12-23T14:14:57.044Z,98777.66
2022-12-23T14:17:37.183Z,98781.13
2022-12-23T14:20:31.461Z,98775.09
2022-12-23T14:23:16.107Z,98773.50
2022-12-23T14:26:03.526Z,98768.25
2022-12-23T14:28:45.117Z,98772.75
2022-12-23T14:31:37.420Z,98777.50
2022-12-23T14:34:28.559Z,98779.88
2022-12-23T14:37:27.327Z,98784.91
2022-12-23T14:39:54.079Z,98774.09
2022-12-23T14:42:34.547Z,98765.38
2022-12-23T14:45:29.092Z,98763.28
2022-12-23T14:47:56.251Z,98777.50
2022-12-23T14:50:42.819Z,98780.94
2022-12-23T14:53:29.467Z,98786.22
2022-12-23T14:56:21.659Z,98785.97
2022-12-23T14:59:01.964Z,98785.41
2022-12-23T15:01:47.774Z,98786.75
2022-12-23T15:04:14.291Z,98786.75
2022-12-23T15:06:44.333Z,98787.53
2022-12-23T15:09:22.664Z,98784.91
2022-12-23T15:11:49.447Z,98795.19
2022-12-23T15:14:31.591Z,98791.75
2022-12-23T15:16:58.325Z,98789.91
2022-12-23T15:19:27.282Z,98783.34
2022-12-23T15:22:20.730Z,98789.91
2022-12-23T15:24:49.080Z,98794.94
2022-12-23T15:27:27.251Z,98792.31
2022-12-23T15:29:54.803Z,98792.56
2022-12-23T15:32:23.715Z,98792.31
2022-12-23T15:34:52.269Z,98790.72
2022-12-23T15:37:28.139Z,98786.25
2022-12-23T15:40:04.524Z,98783.63
2022-12-23T15:42:35.384Z,98784.63
2022-12-23T15:45:24.679Z,98785.47
2022-12-23T15:47:51.219Z,98796.00
2022-12-23T15:50:18.866Z,98801.28
2022-12-23T15:52:47.423Z,98768.03
2022-12-23T15:55:23.930Z,98777.78
2022-12-23T15:57:52.279Z,98786.25
2022-12-23T16:00:26.993Z,98794.41
2022-12-23T16:03:01.824Z,98805.72
2022-12-23T16:05:32.764Z,98807.84
2022-12-23T16:08:28.290Z,98807.34
2022-12-23T16:11:16.321Z,98805.72
2022-12-23T16:13:59.549Z,98808.38
2022-12-23T16:16:46.399Z,98808.38
2022-12-23T16:19:37.973Z,98803.09
2022-12-23T16:22:13.592Z,98803.91
2022-12-23T16:25:12.364Z,98809.19
2022-12-23T16:27:42.840Z,98796.53
2022-12-23T16:30:21.540Z,98797.81
2022-12-23T16:32:58.375Z,98799.69
2022-12-23T16:35:40.259Z,98800.47
2022-12-23T16:38:17.558Z,98796.00
2022-12-23T16:40:46.545Z,98794.41
2022-12-23T16:43:13.269Z,98790.72
2022-12-23T16:45:40.567Z,98796.78
2022-12-23T16:48:16.053Z,98804.72
2022-12-23T16:50:42.734Z,98794.16
2022-12-23T16:53:12.847Z,98802.31
2022-12-23T16:55:42.887Z,98808.94
2022-12-23T16:58:12.935Z,98822.38
2022-12-23T17:00:40.585Z,98823.16
2022-12-23T17:03:07.363Z,98831.88
2022-12-23T17:05:34.013Z,98838.19
2022-12-23T17:08:00.490Z,98842.41
2022-12-23T17:10:27.271Z,98854.03
2022-12-23T17:12:53.780Z,98851.13
2022-12-23T17:15:23.217Z,98833.97
2022-12-23T17:17:51.335Z,98860.88
2022-12-23T17:20:19.454Z,98849.28
2022-12-23T17:22:49.992Z,98847.94
2022-12-23T17:25:26.354Z,98842.66
2022-12-23T17:27:53.647Z,98859.28
2022-12-23T17:30:23.510Z,98858.25
2022-12-23T17:32:54.262Z,98862.97
2022-12-23T17:35:21.606Z,98861.94
2022-12-23T17:37:48.632Z,98872.22
2022-12-23T17:40:16.439Z,98868.25
2022-12-23T17:42:43.317Z,98867.22
2022-12-23T17:45:22.951Z,98865.06
2022-12-23T17:47:49.524Z,98875.91
2022-12-23T17:50:16.204Z,98869.03
2022-12-23T17:52:42.770Z,98862.97
2022-12-23T17:55:23.705Z,98857.16
2022-12-23T17:57:51.771Z,98869.56
2022-12-23T18:00:28.003Z,98870.59
2022-12-23T18:03:00.451Z,98876.69
2022-12-23T18:05:28.207Z,98877.72
2022-12-23T18:07:58.138Z,98875.34
2022-12-23T18:10:39.795Z,98885.88
2022-12-23T18:13:10.032Z,98891.16
2022-12-23T18:15:39.445Z,98893.00
2022-12-23T18:18:24.068Z,98888.78
2022-12-23T18:20:56.878Z,98885.34
2022-12-23T18:23:32.093Z,98887.19
2022-12-23T18:25:59.044Z,98889.03
2022-12-23T18:28:26.032Z,98882.69
2022-12-23T18:30:55.481Z,98886.41
2022-12-23T18:33:24.101Z,98885.59
2022-12-23T18:35:51.111Z,98888.25
2022-12-23T18:38:18.367Z,98874.28
2022-12-23T18:40:45.645Z,98877.13
2022-12-23T18:43:20.867Z,98877.97
2022-12-23T18:45:52.893Z,98895.59
2022-12-23T18:48:20.237Z,98895.88
2022-12-23T18:50:47.003Z,98905.06
2022-12-23T18:53:23.885Z,98899.53
2022-12-23T18:55:51.475Z,98907.44
2022-12-23T18:58:18.873Z,98897.63
2022-12-23T19:00:46.247Z,98902.38
2022-12-23T19:03:20.090Z,98898.16
2022-12-23T19:05:48.727Z,98906.06
2022-12-23T19:08:20.290Z,98910.78
2022-12-23T19:10:51.155Z,98913.41
2022-12-23T19:13:17.808Z,98898.34
2022-12-23T19:15:45.206Z,98922.31
2022-12-23T19:18:17.107Z,98919.09
2022-12-23T19:20:45.341Z,98928.84
2022-12-23T19:23:11.976Z,98927.75
2022-12-23T19:25:46.100Z,98924.59
2022-12-23T19:28:18.925Z,98926.19
2022-12-23T19:30:45.571Z,98936.72
2022-12-23T19:33:13.318Z,98939.91
2022-12-23T19:35:43.039Z,98940.94
2022-12-23T19:38:10.137Z,98938.84
2022-12-23T19:40:36.754Z,98944.91
2022-12-23T19:43:03.540Z,98943.84
2022-12-23T19:45:30.118Z,98943.84
2022-12-23T19:47:56.680Z,98938.34
2022-12-23T19:50:23.223Z,98935.97
2022-12-23T19:52:52.709Z,98934.66
2022-12-23T19:55:19.267Z,98930.69
2022-12-23T19:57:45.802Z,98946.25
2022-12-23T20:00:12.860Z,98953.91
2022-12-23T20:02:39.486Z,98950.47
2022-12-23T20:05:06.346Z,98959.19
2022-12-23T20:07:35.301Z,98949.44
2022-12-23T20:10:02.140Z,98954.69
2022-12-23T20:12:28.691Z,98953.91
2022-12-23T20:14:55.266Z,98967.09
2022-12-23T20:17:21.818Z,98966.28
2022-12-23T20:19:48.338Z,98970.78
2022-12-23T20:22:14.882Z,98974.19
2022-12-23T20:24:41.373Z,98969.69
2022-12-23T20:27:11.704Z,98977.81
2022-12-23T20:29:39.871Z,98989.91
2022-12-23T20:32:06.400Z,98994.69
2022-12-23T20:34:38.734Z,98998.66
2022-12-23T20:37:06.152Z,99004.16
2022-12-23T20:39:32.726Z,99004.97
2022-12-23T20:41:59.348Z,99010.22
2022-12-23T20:44:35.589Z,99013.13
2022-12-23T20:47:03.385Z,99014.69
2022-12-23T20:49:30.070Z,99016.53
2022-12-23T20:51:56.781Z,99012.59
2022-12-23T20:54:29.777Z,99017.59
2022-12-23T20:56:59.102Z,99022.88
2022-12-23T20:59:25.688Z,99020.50
2022-12-23T21:01:52.297Z,99030.78
2022-12-23T21:04:18.989Z,99030.78
2022-12-23T21:06:45.632Z,99022.88
2022-12-23T21:09:14.586Z,99040.28
2022-12-23T21:11:44.683Z,99039.75
2022-12-23T21:14:11.881Z,99039.22
2022-12-23T21:16:38.688Z,99045.31
2022-12-23T21:19:12.558Z,99041.06
2022-12-23T21:21:39.076Z,99044.50
2022-12-23T21:24:05.958Z,99057.44
2022-12-23T21:26:34.851Z,99069.56
2022-12-23T21:29:03.970Z,99067.19
2022-12-23T21:31:32.598Z,99069.25
2022-12-23T21:33:59.227Z,99079.31
2022-12-23T21:36:29.045Z,99084.56
2022-12-23T21:38:55.636Z,99084.56
2022-12-23T21:41:25.655Z,99094.06
2022-12-23T21:43:52.240Z,99085.94
2022-12-23T21:46:21.117Z,99090.94
2022-12-23T21:48:48.683Z,99095.66
2022-12-23T21:51:20.366Z,99104.13
2022-12-23T21:53:49.719Z,99105.41
2022-12-23T21:56:19.786Z,99106.44
2022-12-23T21:58:46.787Z,99109.09
2022-12-23T22:01:16.719Z,99113.56
2022-12-23T22:03:45.030Z,99106.72
2022-12-23T22:06:15.155Z,99107.72
2022-12-23T22:08:42.910Z,99113.00
2022-12-23T22:11:12.767Z,99114.06
2022-12-23T22:13:39.917Z,99122.69
2022-12-23T22:16:11.529Z,99131.00
2022-12-23T22:18:39.122Z,99130.19
2022-12-23T22:21:07.807Z,99137.53
2022-12-23T22:23:34.635Z,99134.13
2022-12-23T22:26:01.171Z,99132.00
2022-12-23T22:28:27.896Z,99135.38
2022-12-23T22:31:01.997Z,99134.34
2022-12-23T22:33:28.525Z,99135.66
2022-12-23T22:35:56.235Z,99127.44
2022-12-23T22:38:23.015Z,99136.06
2022-12-23T22:40:53.273Z,99131.56
2022-12-23T22:43:20.555Z,99132.56
2022-12-23T22:45:47.418Z,99129.94
2022-12-23T22:48:15.328Z,99135.47
2022-12-23T22:50:41.851Z,99130.94
2022-12-23T22:53:11.072Z,99133.00
2022-12-23T22:55:37.573Z,99134.31
2022-12-23T22:58:04.053Z,99132.94
2022-12-23T23:00:30.869Z,99143.94
2022-12-23T23:02:57.650Z,99145.78
2022-12-23T23:05:24.259Z,99149.47
2022-12-23T23:07:50.880Z,99147.31
2022-12-23T23:10:17.886Z,99147.56
2022-12-23T23:12:44.645Z,99159.13
2022-12-23T23:15:11.460Z,99156.44
2022-12-23T23:17:38.167Z,99153.78
2022-12-23T23:20:05.020Z,99163.28
2022-12-23T23:22:31.657Z,99161.84
2022-12-23T23:24:58.135Z,99158.94
2022-12-23T23:27:24.655Z,99164.75
2022-12-23T23:29:51.185Z,99173.09
2022-12-23T23:32:17.730Z,99175.41
2022-12-23T23:34:44.252Z,99173.03
2022-12-23T23:37:10.863Z,99178.78
2022-12-23T23:39:37.450Z,99163.97
2022-12-23T23:42:04.160Z,99171.06
2022-12-23T23:44:30.699Z,99173.72
2022-12-23T23:46:57.202Z,99179.44
2022-12-23T23:49:23.912Z,99176.00
2022-12-23T23:51:50.545Z,99176.75
2022-12-23T23:54:17.275Z,99173.53
2022-12-23T23:56:43.773Z,99178.31
2022-12-23T23:59:10.350Z,99184.06
